METAR Data
IDs: Format: Raw Decoded Include TAF

Data at: 1343 UTC 14 Dec 2019

PAWN 141256Z AUTO 35005KT 10SM CLR M12/M14 A2963 RMK AO2 SLP047 T11171139 FZRANO
PAWN 141156Z AUTO 02005KT 10SM CLR M10/M12 A2962 RMK AO2 SLP045 T11001122 11061 21106 50009 FZRANO
PAWN 141056Z AUTO 04003KT 10SM BKN080 M08/M12 A2963 RMK AO2 SLP047 T10831117 FZRANO
PAWN 140956Z AUTO 14008KT 10SM FEW031 M07/M11 A2961 RMK AO2 SLP041 T10671106 FZRANO
PAWN 140856Z AUTO 14013KT 10SM OVC033 M06/M11 A2960 RMK AO2 SLP035 T10611106 53012 FZRANO
PAWN 140756Z AUTO 13014KT 10SM OVC055 M07/M11 A2958 RMK AO2 SLP028 T10671106 410671194 FZRANO
PAWN 140656Z AUTO 12012KT 10SM OVC060 M07/M10 A2957 RMK AO2 SLP026 T10671100 FZRANO
PAWN 140556Z AUTO 12010KT 10SM CLR M08/M11 A2956 RMK AO2 SLP023 60000 T10831111 11083 21161 51014 FZRANO
PAWN 140456Z AUTO 12011KT 10SM BKN060 M09/M12 A2955 RMK AO2 SLP020 T10891117 FZRANO
PAWN 140356Z AUTO 12009KT 10SM OVC032 M09/M11 A2954 RMK AO2 SNB0257E19 SLP015 P0000 T10891106 FZRANO
PAWN 140256Z AUTO 13012G15KT 10SM OVC038 M11/M12 A2952 RMK AO2 SLP009 T11111117 53007 FZRANO
PAWN 140156Z AUTO 00000KT 10SM BKN042 OVC048 M13/M15 A2951 RMK AO2 SLP005 T11331150 FZRANO
PAWN 140056Z AUTO 01007KT 10SM OVC046 M14/M16 A2949 RMK AO2 SLP998 T11441161 FZRANO
PAWN 132356Z AUTO 35006KT 10SM BKN046 M16/M17 A2950 RMK AO2 SLP003 60000 T11611172 11161 21194 51005 FZRANO
PAWN 132256Z AUTO VRB05KT 9SM CLR M18/M20 A2948 RMK AO2 SNE2158 SLP998 P0000 T11781200 FZRANO
PAWN 132156Z AUTO VRB05KT 9SM -SN CLR M17/M19 A2949 RMK AO2 SNB49 SLP002 P0000 T11721189 FZRANO
PAWN 132056Z AUTO 02005KT 10SM CLR M19/M22 A2948 RMK AO2 SLP997 T11941217 53007 FZRANO
PAWN 131956Z AUTO 01006KT 10SM CLR M19/M21 A2947 RMK AO2 SLP992 T11891211 FZRANO
PAWN 131856Z AUTO 35006KT 10SM CLR M19/M21 A2946 RMK AO2 SLP990 T11891206 FZRANO
PAWN 131756Z AUTO 31004KT 10SM CLR M18/M21 A2946 RMK AO2 SNB04E36 SLP991 P0000 60000 T11831206 11139 21183 53006 FZRANO
PAWN 131556Z AUTO VRB06KT 10SM CLR M16/M18 A2944 RMK AO2 SLP983 T11611178 FZRANO
PAWN 131456Z AUTO 33004KT 10SM CLR M15/M17 A2944 RMK AO2 SLP983 T11501172 58007 FZRANO
PAWN 131356Z AUTO 33005KT 10SM CLR M15/M17 A2945 RMK AO2 SLP987 T11501167 FZRANO
PAWN 131256Z AUTO 00000KT 10SM CLR M14/M16 A2947 RMK AO2 SLP992 T11441161 FZRANO
PAWN 131156Z AUTO 00000KT 10SM CLR M14/M16 A2946 RMK AO2 SLP990 T11391156 11111 21139 56005 FZRANO
PAWN 131056Z AUTO 32003KT 10SM CLR M13/M15 A2947 RMK AO2 SLP992 T11331150 FZRANO
PAWN 130956Z AUTO 35003KT 10SM CLR M13/M14 A2947 RMK AO2 SLP993 T11331144 FZRANO
PAWN 130856Z AUTO 03003KT 10SM CLR M13/M14 A2948 RMK AO2 SLP995 T11281144 56008 FZRANO
PAWN 130756Z AUTO 00000KT 10SM CLR M12/M13 A2948 RMK AO2 SLP996 T11221133 410781150 FZRANO
PAWN 130656Z AUTO 36004KT 10SM CLR M12/M14 A2948 RMK AO2 SLP997 T11171139 FZRANO
PAWN 130556Z AUTO 32004KT 10SM CLR M12/M13 A2950 RMK AO2 SLP004 T11171133 11094 21122 58003 FZRANO
PAWN 130456Z AUTO 35005KT 10SM CLR M11/M12 A2951 RMK AO2 SLP005 T11111122 FZRANO
PAWN 130356Z AUTO 33006KT 10SM CLR M11/M12 A2951 RMK AO2 SLP006 T11111122 FZRANO
PAWN 130256Z AUTO 00000KT 10SM CLR M11/M13 A2951 RMK AO2 SLP006 T11111133 55004 FZRANO
PAWN 130156Z AUTO 36006KT 10SM CLR M11/M12 A2950 RMK AO2 SLP004 T11061117 FZRANO